Time;durP1;ratioP1;P1;durP2;ratioP2;P2;SDS_P1;SDS_P2;PMS_P1;PMS_P2;Temp;Humidity;BMP_temperature;BMP_pressure;BME280_temperature;BME280_humidity;BME280_pressure;Samples;Min_cycle;Max_cycle;Signal;HPM_P1;HPM_P2
2023/04/14 00:01:23;;;;;;;11.03;4.30;;;;;;;18.09;56.55;99621.16;5078283;28;20935;-60
2023/04/14 00:03:48;;;;;;;8.80;4.37;;;;;;;18.11;56.51;99624.44;5081770;28;20179;-61
2023/04/14 00:06:14;;;;;;;7.50;3.20;;;;;;;18.12;56.38;99625.28;5051132;28;20179;-61
2023/04/14 00:08:39;;;;;;;10.20;3.97;;;;;;;18.14;55.96;99629.38;5087975;28;20185;-60
2023/04/14 00:11:05;;;;;;;12.87;4.07;;;;;;;18.15;56.42;99635.91;5071931;28;20185;-61
2023/04/14 00:13:30;;;;;;;7.40;4.13;;;;;;;18.17;56.08;99645.72;5076058;28;20193;-61
2023/04/14 00:15:56;;;;;;;11.00;4.10;;;;;;;18.18;56.16;99652.25;5090483;28;20213;-60
2023/04/14 00:18:21;;;;;;;7.53;3.30;;;;;;;18.19;56.11;99643.31;5088383;28;20606;-60
2023/04/14 00:20:47;;;;;;;7.20;3.83;;;;;;;18.16;56.22;99644.06;5069569;28;20182;-60
2023/04/14 00:23:12;;;;;;;7.73;3.43;;;;;;;18.18;56.38;99647.38;5069527;28;20198;-61
2023/04/14 00:25:38;;;;;;;9.37;3.60;;;;;;;18.19;56.00;99642.47;5070971;28;20291;-60
2023/04/14 00:28:03;;;;;;;9.70;3.50;;;;;;;18.14;56.24;99629.38;5069104;28;20250;-61
2023/04/14 00:30:29;;;;;;;7.20;3.63;;;;;;;18.13;56.51;99624.88;5051133;28;20171;-61
2023/04/14 00:32:54;;;;;;;8.33;3.47;;;;;;;18.13;56.30;99622.03;5087831;28;20182;-61
2023/04/14 00:35:20;;;;;;;10.47;4.03;;;;;;;18.13;56.36;99622.03;5089561;28;20162;-60
2023/04/14 00:37:45;;;;;;;8.13;3.47;;;;;;;18.13;56.50;99621.19;5066754;28;20207;-61
2023/04/14 00:40:11;;;;;;;7.93;3.53;;;;;;;18.10;56.33;99625.66;5090330;28;20158;-61
2023/04/14 00:42:43;;;;;;;10.63;4.37;;;;;;;18.08;56.47;99628.09;5064228;28;20200;-60
2023/04/14 00:45:09;;;;;;;9.50;3.07;;;;;;;18.12;56.39;99623.22;5069060;28;20190;-60
2023/04/14 00:47:36;;;;;;;6.60;3.40;;;;;;;18.16;56.49;99626.94;5070279;28;20785;-61
2023/04/14 00:50:02;;;;;;;7.73;3.03;;;;;;;18.17;56.57;99622.06;5069554;28;20165;-60
2023/04/14 00:52:27;;;;;;;8.93;4.40;;;;;;;18.14;56.25;99629.38;5053293;28;20441;-61
2023/04/14 00:54:53;;;;;;;10.93;4.47;;;;;;;18.15;56.45;99630.19;5051449;28;20516;-60
2023/04/14 00:57:18;;;;;;;10.03;3.70;;;;;;;18.11;56.52;99630.16;5051363;28;20183;-61
2023/04/14 00:59:44;;;;;;;10.50;3.70;;;;;;;18.06;56.89;99639.09;5071558;28;20223;-61
2023/04/14 01:02:09;;;;;;;7.00;3.27;;;;;;;18.03;56.76;99628.47;5069379;28;20160;-61
2023/04/14 01:04:35;;;;;;;11.07;4.07;;;;;;;18.03;57.07;99644.78;5057005;28;20186;-60
2023/04/14 01:07:01;;;;;;;7.53;3.17;;;;;;;18.05;57.09;99630.91;5089882;28;20182;-60
2023/04/14 01:09:26;;;;;;;6.80;2.93;;;;;;;18.02;56.73;99641.06;5089913;28;20198;-61
2023/04/14 01:12:13;;;;;;;9.63;3.60;;;;;;;18.02;56.91;99641.06;5082745;28;20179;-60
2023/04/14 01:14:46;;;;;;;8.20;3.60;;;;;;;18.00;56.88;99646.38;5071321;28;20195;-60
2023/04/14 01:17:20;;;;;;;5.47;2.90;;;;;;;18.01;56.99;99645.16;5051393;28;20457;-61
2023/04/14 01:20:10;;;;;;;7.80;3.80;;;;;;;17.98;56.86;99645.97;5054136;28;20433;-60
2023/04/14 01:22:37;;;;;;;5.50;3.17;;;;;;;17.98;56.81;99645.97;5069437;28;20460;-61
2023/04/14 01:25:12;;;;;;;9.10;3.20;;;;;;;18.02;57.33;99646.78;5055238;28;20432;-61
2023/04/14 01:28:02;;;;;;;6.53;3.17;;;;;;;18.09;56.52;99655.44;5089374;28;20412;-60
2023/04/14 01:30:49;;;;;;;10.80;3.90;;;;;;;18.07;56.81;99646.44;5086642;28;20444;-61
2023/04/14 01:33:17;;;;;;;7.83;3.40;;;;;;;18.07;56.75;99651.34;5059264;28;20801;-61
2023/04/14 01:35:54;;;;;;;10.30;3.90;;;;;;;18.06;56.66;99653.38;5067264;28;20421;-61
2023/04/14 01:38:26;;;;;;;8.33;3.50;;;;;;;18.07;56.74;99652.16;5070062;28;20401;-61
2023/04/14 01:40:52;;;;;;;7.60;3.57;;;;;;;18.08;56.56;99653.81;5072778;28;20389;-61
2023/04/14 01:43:21;;;;;;;6.20;2.83;;;;;;;18.09;56.50;99661.16;5057171;28;20513;-60
2023/04/14 01:45:51;;;;;;;8.40;3.40;;;;;;;18.12;56.51;99665.25;5038576;28;20812;-61
2023/04/14 01:48:16;;;;;;;5.80;3.00;;;;;;;18.10;56.54;99674.22;5075047;28;20467;-60
2023/04/14 01:50:42;;;;;;;8.60;3.47;;;;;;;18.10;56.44;99668.50;5053947;28;20425;-61
2023/04/14 01:53:07;;;;;;;5.87;2.90;;;;;;;18.11;56.42;99672.19;5056348;28;20521;-60
2023/04/14 01:55:34;;;;;;;5.90;3.30;;;;;;;18.12;56.57;99676.69;5053928;28;20189;-60
2023/04/14 01:57:59;;;;;;;8.20;3.10;;;;;;;18.09;56.51;99666.88;5071544;28;20156;-61
2023/04/14 02:00:25;;;;;;;8.97;3.30;;;;;;;18.06;56.89;99664.78;5073065;28;20436;-60
2023/04/14 02:02:53;;;;;;;6.53;3.47;;;;;;;18.07;56.82;99671.34;5070831;28;20930;-60
2023/04/14 02:05:20;;;;;;;7.97;3.57;;;;;;;18.06;56.61;99676.22;5077697;28;20201;-60
2023/04/14 02:07:46;;;;;;;6.33;2.77;;;;;;;18.08;56.64;99670.94;5092112;28;20444;-60
2023/04/14 02:10:11;;;;;;;7.73;2.97;;;;;;;18.06;56.74;99679.06;5062151;28;20425;-61
2023/04/14 02:12:39;;;;;;;6.43;3.60;;;;;;;18.04;56.87;99678.66;5056100;28;20433;-61
2023/04/14 02:15:05;;;;;;;8.27;3.00;;;;;;;18.04;56.99;99672.13;5037777;28;20183;-61
2023/04/14 02:17:30;;;;;;;6.10;2.90;;;;;;;18.02;56.55;99672.50;5055894;28;20577;-61
2023/04/14 02:19:55;;;;;;;7.23;2.97;;;;;;;18.05;56.81;99676.59;5054360;28;20433;-61
2023/04/14 02:22:21;;;;;;;7.33;3.03;;;;;;;18.05;56.48;99676.59;5053737;28;20182;-61
2023/04/14 02:24:46;;;;;;;7.17;3.50;;;;;;;18.08;56.78;99682.38;5083040;28;20182;-61
2023/04/14 02:27:16;;;;;;;7.13;3.10;;;;;;;18.03;56.92;99679.88;5071841;28;20164;-60
2023/04/14 02:29:47;;;;;;;5.87;3.00;;;;;;;18.03;56.73;99679.88;5056578;28;20183;-61
2023/04/14 02:32:16;;;;;;;6.37;3.43;;;;;;;18.08;56.77;99688.09;5054070;28;20410;-61
2023/04/14 02:35:03;;;;;;;7.60;2.60;;;;;;;18.06;56.86;99684.78;5070212;28;20410;-61
2023/04/14 02:37:36;;;;;;;8.37;3.77;;;;;;;18.05;56.61;99694.56;5055645;28;20559;-60
2023/04/14 02:40:10;;;;;;;6.90;3.10;;;;;;;18.01;57.16;99693.72;5037257;28;20513;-60
2023/04/14 02:42:35;;;;;;;7.63;3.20;;;;;;;18.02;57.12;99695.34;5039328;28;20481;-61
2023/04/14 02:45:05;;;;;;;6.60;3.13;;;;;;;17.98;56.88;99700.22;5071794;28;20444;-61
2023/04/14 02:47:33;;;;;;;8.50;3.27;;;;;;;18.03;56.80;99691.31;5053137;28;20179;-60
2023/04/14 02:49:59;;;;;;;5.80;3.03;;;;;;;18.06;56.81;99701.91;5071493;28;20430;-61
2023/04/14 02:52:25;;;;;;;5.40;2.80;;;;;;;18.06;56.56;99701.91;5056915;28;20452;-60
2023/04/14 02:54:50;;;;;;;7.43;3.03;;;;;;;18.00;56.97;99700.66;5053247;28;20414;-60
2023/04/14 02:57:48;;;;;;;6.87;3.10;;;;;;;17.99;57.04;99713.28;5076812;28;20237;-61
2023/04/14 03:00:14;;;;;;;9.90;3.60;;;;;;;18.01;56.75;99708.00;5050857;28;20261;-61
2023/04/14 03:02:39;;;;;;;6.50;3.07;;;;;;;18.03;56.97;99708.44;5049329;28;20437;-61
2023/04/14 03:05:06;;;;;;;5.60;2.50;;;;;;;18.04;56.96;99710.06;5062280;28;20174;-61
2023/04/14 03:07:31;;;;;;;6.37;3.13;;;;;;;18.08;56.68;99704.41;5057073;28;20195;-60
2023/04/14 03:09:57;;;;;;;7.40;3.07;;;;;;;18.08;56.41;99710.94;5069291;28;20452;-60
2023/04/14 03:12:22;;;;;;;6.60;2.90;;;;;;;18.08;56.41;99708.09;5035189;28;20187;-60
2023/04/14 03:14:47;;;;;;;7.47;3.10;;;;;;;18.10;56.45;99708.50;5040750;28;20257;-60
2023/04/14 03:17:13;;;;;;;5.50;2.97;;;;;;;18.11;56.39;99704.44;5091289;28;20202;-60
2023/04/14 03:19:40;;;;;;;7.23;3.17;;;;;;;18.11;56.53;99704.44;5073462;28;20167;-60
2023/04/14 03:22:07;;;;;;;4.83;2.83;;;;;;;18.11;56.53;99700.75;5059227;28;20187;-60
2023/04/14 03:24:33;;;;;;;7.67;3.60;;;;;;;18.09;56.43;99712.56;5055669;28;20508;-61
2023/04/14 03:27:04;;;;;;;7.57;2.63;;;;;;;18.06;56.65;99698.25;5090746;28;20486;-60
2023/04/14 03:29:36;;;;;;;4.57;2.63;;;;;;;18.05;56.41;99705.16;5090139;28;20512;-61
2023/04/14 03:32:05;;;;;;;5.40;2.50;;;;;;;18.02;56.76;99706.78;5072193;28;20412;-60
2023/04/14 03:34:31;;;;;;;5.60;2.97;;;;;;;18.02;56.75;99709.63;5062619;28;20828;-61
2023/04/14 03:36:56;;;;;;;7.03;3.30;;;;;;;18.02;56.77;99705.97;5035325;28;20483;-61
2023/04/14 03:39:27;;;;;;;5.50;2.80;;;;;;;18.03;56.52;99701.91;5070638;28;20171;-61
2023/04/14 03:41:54;;;;;;;7.60;3.10;;;;;;;18.01;56.58;99712.91;5057109;28;20183;-61
2023/04/14 03:44:20;;;;;;;6.70;2.60;;;;;;;17.98;56.71;99705.94;5037054;28;20850;-61
2023/04/14 03:46:48;;;;;;;5.70;2.63;;;;;;;17.99;56.87;99712.44;5053681;28;20523;-60
2023/04/14 03:49:15;;;;;;;4.53;2.20;;;;;;;17.98;57.07;99707.97;5070003;28;20167;-61
2023/04/14 03:51:40;;;;;;;4.83;2.50;;;;;;;17.99;56.94;99712.44;5054783;28;20474;-61
2023/04/14 03:54:06;;;;;;;5.60;2.73;;;;;;;17.96;56.69;99708.34;5035892;28;20438;-60
2023/04/14 03:56:32;;;;;;;5.70;2.53;;;;;;;18.00;57.05;99709.22;5036237;28;20191;-61
2023/04/14 03:58:58;;;;;;;5.47;2.37;;;;;;;18.01;56.52;99705.13;5070369;28;20235;-61
2023/04/14 04:01:24;;;;;;;6.20;2.67;;;;;;;18.03;56.60;99707.59;5090453;28;20810;-61
2023/04/14 04:03:52;;;;;;;3.40;2.03;;;;;;;17.99;56.83;99713.28;5056038;28;20261;-60
2023/04/14 04:06:17;;;;;;;5.47;2.70;;;;;;;18.01;56.63;99713.69;5052607;28;20462;-60
2023/04/14 04:08:42;;;;;;;13.33;3.40;;;;;;;17.99;56.66;99719.00;5072140;28;20416;-60
2023/04/14 04:11:08;;;;;;;4.87;2.17;;;;;;;18.01;56.86;99715.75;5057320;28;20273;-61
2023/04/14 04:13:34;;;;;;;7.27;2.90;;;;;;;18.01;56.58;99718.63;5069620;28;20171;-60
2023/04/14 04:16:00;;;;;;;6.07;3.43;;;;;;;18.03;56.54;99714.16;5054715;28;20206;-60
2023/04/14 04:18:26;;;;;;;5.60;2.60;;;;;;;17.96;56.48;99714.06;5051909;28;20924;-61
2023/04/14 04:20:51;;;;;;;7.03;3.33;;;;;;;17.92;56.77;99718.09;5052133;28;20175;-60
2023/04/14 04:23:17;;;;;;;5.37;2.70;;;;;;;17.93;56.97;99717.72;5066158;28;20251;-61
2023/04/14 04:25:42;;;;;;;5.47;2.33;;;;;;;17.95;56.96;99715.28;5072148;28;20181;-61
2023/04/14 04:28:08;;;;;;;5.90;2.73;;;;;;;17.97;56.80;99715.69;5067611;28;20186;-61
2023/04/14 04:30:33;;;;;;;5.30;2.30;;;;;;;18.00;56.59;99725.50;5090015;28;20170;-58
2023/04/14 04:33:02;;;;;;;6.37;3.50;;;;;;;18.04;56.53;99721.50;5063039;28;20175;-59
2023/04/14 04:35:28;;;;;;;6.07;2.23;;;;;;;18.04;56.11;99718.66;5069975;28;20182;-59
2023/04/14 04:37:54;;;;;;;5.57;2.47;;;;;;;18.05;56.43;99723.13;5053864;28;20932;-58
2023/04/14 04:40:19;;;;;;;5.87;2.57;;;;;;;18.08;56.63;99724.38;5051681;28;20218;-59
2023/04/14 04:42:45;;;;;;;7.03;2.70;;;;;;;18.09;56.50;99726.88;5070693;28;20437;-58
2023/04/14 04:45:10;;;;;;;4.00;2.13;;;;;;;18.09;56.36;99729.72;5089769;28;20748;-59
2023/04/14 04:47:36;;;;;;;6.23;3.33;;;;;;;18.08;56.53;99732.97;5057160;28;20171;-60
2023/04/14 04:50:01;;;;;;;6.03;2.57;;;;;;;18.08;56.37;99732.97;5077988;28;20216;-60
2023/04/14 04:52:27;;;;;;;5.63;2.80;;;;;;;18.06;56.49;99735.41;5086685;28;20547;-59
2023/04/14 04:54:52;;;;;;;4.80;2.87;;;;;;;18.07;56.45;99737.84;5083363;28;20869;-59
2023/04/14 04:57:18;;;;;;;5.40;2.30;;;;;;;18.04;56.61;99735.78;5069100;28;21041;-59
2023/04/14 04:59:44;;;;;;;5.07;2.53;;;;;;;18.01;56.58;99747.97;5084271;28;20253;-60
2023/04/14 05:02:09;;;;;;;3.50;1.97;;;;;;;17.99;56.78;99741.00;5084935;28;20277;-62
2023/04/14 05:04:35;;;;;;;4.90;2.83;;;;;;;17.98;56.75;99748.78;5088538;28;20192;-61
2023/04/14 05:07:02;;;;;;;5.20;2.53;;;;;;;17.97;56.72;99749.97;5077275;28;20198;-60
2023/04/14 05:09:27;;;;;;;5.47;2.40;;;;;;;17.98;56.74;99750.81;5069908;28;20170;-61
2023/04/14 05:11:53;;;;;;;5.43;2.33;;;;;;;17.95;56.68;99743.84;5076077;28;20433;-61
2023/04/14 05:14:18;;;;;;;4.00;2.53;;;;;;;17.96;56.90;99759.75;5054770;28;20183;-60
2023/04/14 05:16:43;;;;;;;4.80;2.50;;;;;;;17.97;56.62;99749.97;5072784;28;20199;-61
2023/04/14 05:19:09;;;;;;;9.50;2.60;;;;;;;17.96;56.52;99759.75;5075051;28;20187;-60
2023/04/14 05:21:34;;;;;;;4.47;1.90;;;;;;;18.03;56.46;99759.84;5051835;28;20187;-61
2023/04/14 05:24:00;;;;;;;6.67;3.00;;;;;;;18.05;56.62;99762.28;5053148;28;20174;-58
2023/04/14 05:26:26;;;;;;;6.40;3.10;;;;;;;18.04;56.68;99760.66;5052952;28;20172;-59
2023/04/14 05:28:51;;;;;;;4.30;2.40;;;;;;;17.98;56.85;99765.09;5074464;28;20271;-60
2023/04/14 05:31:17;;;;;;;5.10;2.83;;;;;;;17.99;56.78;99763.84;5072892;28;20548;-59
2023/04/14 05:33:42;;;;;;;6.37;2.80;;;;;;;17.98;56.57;99771.63;5073263;28;20221;-59
2023/04/14 05:36:08;;;;;;;3.33;1.90;;;;;;;17.98;56.71;99767.94;5072751;28;20190;-59
2023/04/14 05:38:38;;;;;;;4.60;2.70;;;;;;;18.01;56.38;99772.88;5074545;28;20719;-58
2023/04/14 05:41:04;;;;;;;5.47;2.20;;;;;;;17.98;56.68;99774.47;5071741;28;20309;-59
2023/04/14 05:43:30;;;;;;;5.93;2.23;;;;;;;17.96;56.71;99767.50;5051996;28;20406;-59
2023/04/14 05:45:57;;;;;;;5.17;2.50;;;;;;;17.95;56.70;99771.56;5064849;28;20465;-60
2023/04/14 05:48:23;;;;;;;4.10;2.27;;;;;;;17.97;56.92;99774.88;5084690;28;20191;-60
2023/04/14 05:50:49;;;;;;;4.10;2.10;;;;;;;17.99;56.65;99770.41;5072001;28;20429;-59
2023/04/14 05:53:15;;;;;;;3.43;2.20;;;;;;;18.01;56.38;99778.59;5090801;28;20438;-59
2023/04/14 05:55:40;;;;;;;4.73;2.30;;;;;;;18.02;56.26;99778.19;5092591;28;20174;-59
2023/04/14 05:58:06;;;;;;;6.00;3.27;;;;;;;18.04;56.42;99778.63;5088520;28;20186;-59
2023/04/14 06:00:31;;;;;;;5.33;2.23;;;;;;;18.07;56.39;99777.03;5093011;28;20242;-59
2023/04/14 06:02:57;;;;;;;4.60;2.20;;;;;;;18.07;56.42;99772.13;5088688;28;20649;-59
2023/04/14 06:05:23;;;;;;;5.63;2.20;;;;;;;18.08;55.96;99775.81;5092503;28;20950;-60
2023/04/14 06:07:49;;;;;;;4.73;2.23;;;;;;;18.06;56.31;99770.47;5092844;28;20198;-60
2023/04/14 06:10:14;;;;;;;4.17;2.13;;;;;;;18.08;56.06;99770.94;5081749;28;20425;-59
2023/04/14 06:12:40;;;;;;;4.27;2.10;;;;;;;18.06;56.67;99776.19;5054888;28;20240;-60
2023/04/14 06:15:05;;;;;;;3.67;2.20;;;;;;;18.07;56.15;99774.16;5071415;28;20186;-60
2023/04/14 06:17:32;;;;;;;3.07;2.00;;;;;;;18.05;56.61;99785.16;5052461;28;20650;-60
2023/04/14 06:19:57;;;;;;;3.20;1.77;;;;;;;18.01;56.68;99776.53;5045354;28;20206;-60
2023/04/14 06:22:27;;;;;;;4.20;2.20;;;;;;;18.03;56.72;99776.16;5082502;28;20455;-60
2023/04/14 06:24:53;;;;;;;5.60;2.60;;;;;;;18.01;56.38;99773.69;5092404;28;20166;-59
2023/04/14 06:27:19;;;;;;;5.13;2.17;;;;;;;18.03;56.41;99774.13;5092844;28;20477;-60
2023/04/14 06:29:44;;;;;;;5.27;2.30;;;;;;;18.03;56.48;99768.41;5060603;28;20167;-59
2023/04/14 06:32:10;;;;;;;3.93;2.30;;;;;;;18.06;56.72;99763.97;5075788;28;20170;-59
2023/04/14 06:34:35;;;;;;;4.00;2.00;;;;;;;18.05;56.41;99768.00;5071681;28;20179;-59
2023/04/14 06:37:01;;;;;;;4.67;2.10;;;;;;;18.01;56.34;99761.47;5071876;28;20241;-59
2023/04/14 06:39:26;;;;;;;5.30;2.77;;;;;;;17.95;56.63;99763.00;5073148;28;20525;-60
2023/04/14 06:41:52;;;;;;;3.20;1.80;;;;;;;17.97;56.70;99755.69;5053779;28;20551;-59
2023/04/14 06:44:17;;;;;;;3.50;1.90;;;;;;;17.95;56.99;99758.13;5077085;28;20531;-59
2023/04/14 06:46:43;;;;;;;2.80;1.80;;;;;;;17.94;56.80;99756.47;5070248;28;20178;-59
2023/04/14 06:49:08;;;;;;;3.27;1.83;;;;;;;17.93;56.91;99756.84;5051625;28;20176;-60
2023/04/14 06:51:34;;;;;;;4.00;2.00;;;;;;;17.97;56.77;99747.09;5073014;28;20549;-60
2023/04/14 06:53:59;;;;;;;5.10;2.20;;;;;;;17.95;56.85;99752.41;5052286;28;20171;-60
2023/04/14 06:56:25;;;;;;;3.40;2.07;;;;;;;17.93;56.61;99751.97;5070390;28;20195;-60
2023/04/14 06:58:50;;;;;;;3.30;1.77;;;;;;;17.96;56.68;99751.19;5071007;28;20290;-59
2023/04/14 07:01:16;;;;;;;3.27;2.20;;;;;;;18.00;56.83;99752.06;5091336;28;20182;-59
2023/04/14 07:03:41;;;;;;;4.50;2.90;;;;;;;17.95;57.01;99754.41;5071761;28;20166;-59
2023/04/14 07:06:09;;;;;;;3.73;2.07;;;;;;;17.91;57.14;99747.88;5064636;28;20178;-59
2023/04/14 07:08:35;;;;;;;4.47;2.13;;;;;;;17.94;57.02;99745.06;5090611;28;20170;-60
2023/04/14 07:11:10;;;;;;;4.07;1.90;;;;;;;17.93;56.73;99739.72;5082456;28;20436;-59
2023/04/14 07:13:36;;;;;;;3.07;1.90;;;;;;;17.97;56.90;99737.75;5049640;28;20179;-59
2023/04/14 07:16:01;;;;;;;4.20;2.27;;;;;;;18.00;56.66;99732.06;5049355;28;20762;-60
2023/04/14 07:18:27;;;;;;;3.70;1.90;;;;;;;18.02;56.39;99732.47;5069530;28;20205;-61
2023/04/14 07:20:53;;;;;;;3.30;1.90;;;;;;;18.05;56.39;99733.72;5070133;28;20159;-61
2023/04/14 07:23:18;;;;;;;5.47;2.00;;;;;;;18.05;56.22;99726.00;5072383;28;20649;-61
2023/04/14 07:25:49;;;;;;;3.60;2.07;;;;;;;18.05;56.52;99726.00;5053269;28;20274;-61
2023/04/14 07:28:14;;;;;;;4.60;2.40;;;;;;;18.06;56.59;99719.06;5070145;28;20205;-61
2023/04/14 07:30:40;;;;;;;3.47;1.80;;;;;;;18.07;56.36;99722.75;5087479;28;21018;-60
2023/04/14 07:33:05;;;;;;;4.03;1.80;;;;;;;18.09;56.51;99712.56;5089896;28;20161;-61
2023/04/14 07:35:31;;;;;;;3.20;1.80;;;;;;;18.08;56.50;99718.69;5088872;28;20167;-61
2023/04/14 07:37:56;;;;;;;3.87;2.03;;;;;;;18.07;56.17;99714.97;5085658;28;20211;-60
2023/04/14 07:40:22;;;;;;;3.83;1.90;;;;;;;18.07;56.42;99719.91;5082114;28;20175;-61
2023/04/14 07:42:47;;;;;;;3.97;2.10;;;;;;;18.05;56.49;99713.72;5052776;28;20179;-60
2023/04/14 07:45:13;;;;;;;3.27;1.73;;;;;;;18.00;56.78;99714.94;5070456;28;20585;-60
2023/04/14 07:47:38;;;;;;;3.60;2.10;;;;;;;17.99;56.47;99709.59;5056987;28;20715;-60
2023/04/14 07:50:04;;;;;;;3.53;1.93;;;;;;;17.98;56.45;99705.94;5089292;28;20159;-60
2023/04/14 07:52:30;;;;;;;4.40;2.13;;;;;;;17.98;56.49;99707.97;5086743;28;20233;-60
2023/04/14 07:54:55;;;;;;;4.77;2.27;;;;;;;18.00;56.71;99705.53;5087517;28;20463;-60
2023/04/14 07:57:21;;;;;;;3.73;1.77;;;;;;;18.01;56.46;99708.00;5089508;28;20684;-61
2023/04/14 07:59:46;;;;;;;4.77;1.80;;;;;;;17.97;56.47;99704.28;5089684;28;20526;-61
2023/04/14 08:02:12;;;;;;;3.37;1.90;;;;;;;17.96;56.89;99705.50;5066375;28;20220;-60
2023/04/14 08:04:37;;;;;;;3.70;2.03;;;;;;;17.94;56.86;99705.06;5079572;28;20175;-61
2023/04/14 08:07:03;;;;;;;5.27;2.20;;;;;;;17.91;56.98;99708.69;5072714;28;20717;-61
2023/04/14 08:09:28;;;;;;;3.70;2.00;;;;;;;17.97;56.82;99706.31;5089409;28;20159;-61
2023/04/14 08:11:55;;;;;;;3.80;2.00;;;;;;;17.96;56.84;99705.50;5075533;28;20187;-61
2023/04/14 08:14:21;;;;;;;3.53;1.93;;;;;;;17.93;56.93;99708.31;5079652;28;20186;-60
2023/04/14 08:16:47;;;;;;;3.40;1.90;;;;;;;17.98;56.91;99699.38;5050709;28;20449;-60
2023/04/14 08:19:12;;;;;;;3.90;2.13;;;;;;;18.00;56.71;99700.66;5071527;28;20238;-60
2023/04/14 08:21:38;;;;;;;3.83;1.77;;;;;;;17.95;57.14;99691.59;5090130;28;20838;-60
2023/04/14 08:24:05;;;;;;;4.43;2.10;;;;;;;17.98;56.61;99688.81;5071892;28;20217;-60
2023/04/14 08:26:30;;;;;;;3.60;1.63;;;;;;;17.98;56.40;99691.66;5071478;28;20210;-60
2023/04/14 08:28:56;;;;;;;3.30;1.80;;;;;;;17.98;56.96;99685.09;5069868;28;20413;-60
2023/04/14 08:31:21;;;;;;;3.60;1.50;;;;;;;17.93;56.62;99697.72;5071462;28;20252;-61
2023/04/14 08:33:47;;;;;;;3.00;1.80;;;;;;;17.95;56.92;99697.31;5069002;28;20167;-61
2023/04/14 08:36:12;;;;;;;3.40;2.00;;;;;;;17.98;56.53;99696.53;5049651;28;20183;-60
2023/04/14 08:38:38;;;;;;;3.33;1.80;;;;;;;18.02;56.70;99694.53;5086246;28;20182;-61
2023/04/14 08:41:03;;;;;;;3.73;2.13;;;;;;;18.03;56.66;99699.88;5089097;28;20243;-60
2023/04/14 08:43:29;;;;;;;3.27;1.90;;;;;;;18.04;56.61;99692.94;5017259;28;20262;-61
2023/04/14 08:45:54;;;;;;;3.63;1.90;;;;;;;18.04;56.62;99698.66;5069747;28;20174;-60
2023/04/14 08:48:20;;;;;;;4.00;2.00;;;;;;;18.08;56.46;99696.66;5089944;28;20165;-61
2023/04/14 08:51:01;;;;;;;3.80;1.93;;;;;;;18.10;56.35;99699.94;5089972;28;20170;-60
2023/04/14 08:53:26;;;;;;;2.70;1.83;;;;;;;18.16;56.09;99700.41;5066914;28;20206;-60
2023/04/14 08:55:52;;;;;;;3.93;2.00;;;;;;;18.18;56.00;99698.81;5053286;28;20452;-60
2023/04/14 08:58:17;;;;;;;2.83;1.50;;;;;;;18.22;56.06;99693.91;5063932;28;20216;-60
2023/04/14 09:00:42;;;;;;;3.27;1.90;;;;;;;18.22;55.97;99688.19;5065126;28;20175;-61
2023/04/14 09:03:08;;;;;;;3.47;1.73;;;;;;;18.22;55.93;99691.06;5068680;28;20167;-60
2023/04/14 09:05:34;;;;;;;2.70;1.47;;;;;;;18.22;56.02;99693.13;5061479;28;20174;-61
2023/04/14 09:07:59;;;;;;;3.27;1.73;;;;;;;18.21;56.13;99694.34;5087140;28;20195;-60
2023/04/14 09:10:25;;;;;;;3.63;2.30;;;;;;;18.20;56.12;99684.09;5089615;28;20177;-60
2023/04/14 09:12:51;;;;;;;3.30;1.53;;;;;;;18.16;56.38;99684.06;5049309;28;20178;-61
2023/04/14 09:15:17;;;;;;;3.13;2.20;;;;;;;18.13;55.92;99679.16;5088593;28;20170;-60
2023/04/14 09:17:42;;;;;;;3.00;1.83;;;;;;;18.09;56.52;99683.19;5083523;28;20520;-60
2023/04/14 09:20:08;;;;;;;2.77;1.60;;;;;;;18.06;56.47;99681.13;5081072;28;20167;-61
2023/04/14 09:22:34;;;;;;;4.43;1.93;;;;;;;18.03;56.67;99671.31;5050709;28;20191;-60
2023/04/14 09:25:00;;;;;;;2.90;1.70;;;;;;;18.02;56.67;99677.41;5068362;28;20258;-60
2023/04/14 09:27:25;;;;;;;4.10;2.17;;;;;;;18.01;56.64;99676.56;5074085;28;20481;-60
2023/04/14 09:29:51;;;;;;;3.10;1.90;;;;;;;17.99;56.76;99673.31;5071506;28;20166;-60
2023/04/14 09:32:17;;;;;;;3.60;2.03;;;;;;;18.00;56.82;99672.09;5052665;28;20166;-60
2023/04/14 09:34:51;;;;;;;4.17;2.10;;;;;;;17.98;56.85;99665.94;5051936;28;20441;-61
2023/04/14 09:37:17;;;;;;;3.27;1.70;;;;;;;17.98;56.63;99665.94;5050021;28;20198;-60
2023/04/14 09:39:47;;;;;;;3.07;1.60;;;;;;;17.98;56.81;99657.38;5068048;28;20421;-60
2023/04/14 09:42:13;;;;;;;6.43;1.60;;;;;;;17.96;56.69;99656.94;5070738;28;20179;-60
2023/04/14 09:44:57;;;;;;;3.20;1.60;;;;;;;17.94;56.73;99659.38;5087981;28;20474;-60
2023/04/14 09:47:23;;;;;;;2.90;1.30;;;;;;;17.96;56.54;99653.28;5075000;28;20179;-61
2023/04/14 09:49:59;;;;;;;3.20;1.77;;;;;;;17.95;56.74;99654.47;5068974;28;20429;-60
2023/04/14 09:52:37;;;;;;;4.50;2.03;;;;;;;17.95;56.93;99658.16;5067076;28;20187;-60
2023/04/14 09:55:08;;;;;;;3.40;1.60;;;;;;;17.96;56.57;99661.84;5048129;28;20533;-60
2023/04/14 09:57:36;;;;;;;4.73;1.90;;;;;;;17.98;56.61;99665.13;5057634;28;20475;-60
2023/04/14 10:00:04;;;;;;;3.27;1.60;;;;;;;17.99;56.86;99667.59;5024061;28;20513;-61
2023/04/14 10:02:30;;;;;;;3.63;1.80;;;;;;;18.02;56.41;99655.38;5063552;28;20468;-60
2023/04/14 10:05:03;;;;;;;3.10;1.70;;;;;;;18.03;56.52;99657.03;5039457;28;20424;-60
2023/04/14 10:07:29;;;;;;;3.17;2.10;;;;;;;18.06;56.26;99644.78;5052861;28;20225;-61
2023/04/14 10:09:55;;;;;;;2.90;1.80;;;;;;;18.10;56.49;99648.50;5071614;28;20536;-60
2023/04/14 10:12:21;;;;;;;3.70;1.77;;;;;;;18.16;56.14;99643.28;5082340;28;20190;-60
2023/04/14 10:14:46;;;;;;;4.67;1.90;;;;;;;18.20;56.15;99635.53;5073948;28;20279;-60
2023/04/14 10:17:12;;;;;;;2.90;1.67;;;;;;;18.22;55.89;99633.91;5091547;28;20201;-61
2023/04/14 10:19:38;;;;;;;2.63;1.40;;;;;;;18.24;56.10;99630.66;5087316;28;20183;-60
2023/04/14 10:22:04;;;;;;;2.53;1.40;;;;;;;18.26;56.07;99631.91;5061530;28;20455;-60
2023/04/14 10:24:30;;;;;;;2.60;1.50;;;;;;;18.25;55.94;99618.84;5053103;28;20194;-60
2023/04/14 10:26:55;;;;;;;2.53;1.50;;;;;;;18.27;56.03;99621.31;5055189;28;20472;-60
2023/04/14 10:29:21;;;;;;;2.70;1.50;;;;;;;18.26;55.98;99633.97;5053214;28;20171;-60
2023/04/14 10:32:07;;;;;;;2.17;1.53;;;;;;;18.23;55.87;99614.75;5073444;28;20187;-60
2023/04/14 10:34:33;;;;;;;4.07;1.63;;;;;;;18.19;56.10;99613.91;5050004;28;20187;-61
2023/04/14 10:37:12;;;;;;;3.30;1.60;;;;;;;18.20;56.09;99615.53;5054598;28;20552;-60
2023/04/14 10:39:38;;;;;;;3.33;1.53;;;;;;;18.17;55.96;99614.28;5060298;28;20181;-61
2023/04/14 10:42:03;;;;;;;4.00;1.50;;;;;;;18.14;56.29;99606.53;5036807;28;20429;-60
2023/04/14 10:44:31;;;;;;;2.83;1.60;;;;;;;18.11;56.19;99610.16;5053425;28;20417;-59
2023/04/14 10:46:58;;;;;;;3.13;1.40;;;;;;;18.09;56.41;99603.19;5078102;28;20178;-60
2023/04/14 10:49:37;;;;;;;3.20;1.50;;;;;;;18.04;56.57;99604.41;5072082;28;20430;-60
2023/04/14 10:52:12;;;;;;;3.27;1.70;;;;;;;18.03;56.56;99610.50;5050391;28;20520;-60
2023/04/14 10:55:07;;;;;;;3.13;1.90;;;;;;;18.03;56.52;99599.91;5066524;28;20466;-60
2023/04/14 10:57:39;;;;;;;3.77;1.93;;;;;;;18.02;56.56;99597.44;5033201;28;20462;-60
2023/04/14 11:00:22;;;;;;;4.70;2.03;;;;;;;18.02;56.46;99606.81;5019997;28;20501;-59
2023/04/14 11:03:04;;;;;;;4.13;1.50;;;;;;;18.00;56.48;99589.25;5086824;28;20462;-60
2023/04/14 11:05:32;;;;;;;4.97;1.60;;;;;;;18.02;56.66;99594.59;5075491;28;20444;-60
2023/04/14 11:08:00;;;;;;;2.60;1.20;;;;;;;18.00;56.58;99594.13;5090734;28;20485;-59
2023/04/14 11:10:27;;;;;;;2.33;1.50;;;;;;;17.99;56.63;99593.34;5085532;28;20472;-61
2023/04/14 11:13:06;;;;;;;3.27;1.70;;;;;;;17.99;56.91;99584.75;5061254;28;20465;-60
2023/04/14 11:15:43;;;;;;;2.80;1.47;;;;;;;17.97;56.61;99572.91;5051081;28;20402;-60
2023/04/14 11:18:33;;;;;;;2.33;1.23;;;;;;;17.98;56.53;99580.28;5050899;28;20457;-60
2023/04/14 11:21:09;;;;;;;3.43;1.70;;;;;;;18.00;56.61;99569.25;5066669;28;20433;-60
2023/04/14 11:23:35;;;;;;;4.70;1.73;;;;;;;18.04;56.53;99560.72;5070517;28;20856;-60
2023/04/14 11:26:00;;;;;;;3.13;1.50;;;;;;;18.07;56.38;99565.66;5052777;28;20436;-60
2023/04/14 11:28:33;;;;;;;3.23;1.40;;;;;;;18.08;56.39;99568.13;5072690;28;20217;-60
2023/04/14 11:30:59;;;;;;;3.60;1.50;;;;;;;18.13;56.29;99552.63;5079134;28;20182;-59
2023/04/14 11:33:43;;;;;;;2.67;1.37;;;;;;;18.18;56.17;99541.69;5090467;28;20413;-59
2023/04/14 11:36:09;;;;;;;2.43;1.47;;;;;;;18.20;56.05;99541.25;5066140;28;20459;-59